sensor_id;sensor_type;location;lat;lon;timestamp;P1;durP1;ratioP1;P2;durP2;ratioP2
16922;SDS011;8578;50.938;13.556;2023-06-14T00:01:58;3.43;;;2.47;;
16922;SDS011;8578;50.938;13.556;2023-06-14T00:04:26;2.73;;;2.03;;
16922;SDS011;8578;50.938;13.556;2023-06-14T00:06:55;5.20;;;2.60;;
16922;SDS011;8578;50.938;13.556;2023-06-14T00:09:24;2.73;;;2.10;;
16922;SDS011;8578;50.938;13.556;2023-06-14T00:11:52;4.33;;;2.73;;
16922;SDS011;8578;50.938;13.556;2023-06-14T00:14:19;5.20;;;2.57;;
16922;SDS011;8578;50.938;13.556;2023-06-14T00:16:47;4.73;;;2.10;;
16922;SDS011;8578;50.938;13.556;2023-06-14T00:19:15;3.77;;;2.20;;
16922;SDS011;8578;50.938;13.556;2023-06-14T00:21:42;2.93;;;2.47;;
16922;SDS011;8578;50.938;13.556;2023-06-14T00:24:10;5.17;;;2.53;;
16922;SDS011;8578;50.938;13.556;2023-06-14T00:26:39;3.40;;;2.00;;
16922;SDS011;8578;50.938;13.556;2023-06-14T00:29:06;4.63;;;2.33;;
16922;SDS011;8578;50.938;13.556;2023-06-14T00:31:35;3.13;;;2.10;;
16922;SDS011;8578;50.938;13.556;2023-06-14T00:34:02;5.23;;;2.13;;
16922;SDS011;8578;50.938;13.556;2023-06-14T00:36:30;2.53;;;2.00;;
16922;SDS011;8578;50.938;13.556;2023-06-14T00:38:57;3.80;;;2.27;;
16922;SDS011;8578;50.938;13.556;2023-06-14T00:41:25;3.93;;;2.23;;
16922;SDS011;8578;50.938;13.556;2023-06-14T00:43:55;2.27;;;1.77;;
16922;SDS011;8578;50.938;13.556;2023-06-14T00:46:23;3.57;;;1.97;;
16922;SDS011;8578;50.938;13.556;2023-06-14T00:48:50;5.40;;;2.23;;
16922;SDS011;8578;50.938;13.556;2023-06-14T00:51:18;2.53;;;2.03;;
16922;SDS011;8578;50.938;13.556;2023-06-14T00:53:46;6.53;;;2.17;;
16922;SDS011;8578;50.938;13.556;2023-06-14T00:56:15;2.60;;;1.93;;
16922;SDS011;8578;50.938;13.556;2023-06-14T00:58:43;4.47;;;2.00;;
16922;SDS011;8578;50.938;13.556;2023-06-14T01:01:12;3.00;;;2.47;;
16922;SDS011;8578;50.938;13.556;2023-06-14T01:03:40;3.67;;;2.23;;
16922;SDS011;8578;50.938;13.556;2023-06-14T01:06:11;2.63;;;1.97;;
16922;SDS011;8578;50.938;13.556;2023-06-14T01:08:41;3.50;;;2.07;;
16922;SDS011;8578;50.938;13.556;2023-06-14T01:11:12;4.00;;;2.00;;
16922;SDS011;8578;50.938;13.556;2023-06-14T01:13:45;2.73;;;2.07;;
16922;SDS011;8578;50.938;13.556;2023-06-14T01:16:15;2.20;;;1.93;;
16922;SDS011;8578;50.938;13.556;2023-06-14T01:18:44;4.60;;;2.27;;
16922;SDS011;8578;50.938;13.556;2023-06-14T01:21:22;3.83;;;2.03;;
16922;SDS011;8578;50.938;13.556;2023-06-14T01:23:51;3.07;;;2.37;;
16922;SDS011;8578;50.938;13.556;2023-06-14T01:26:21;3.93;;;2.13;;
16922;SDS011;8578;50.938;13.556;2023-06-14T01:28:50;2.80;;;1.87;;
16922;SDS011;8578;50.938;13.556;2023-06-14T01:31:21;3.53;;;2.33;;
16922;SDS011;8578;50.938;13.556;2023-06-14T01:33:49;3.43;;;2.17;;
16922;SDS011;8578;50.938;13.556;2023-06-14T01:36:18;4.13;;;2.40;;
16922;SDS011;8578;50.938;13.556;2023-06-14T01:38:46;2.97;;;2.00;;
16922;SDS011;8578;50.938;13.556;2023-06-14T01:41:16;2.80;;;2.10;;
16922;SDS011;8578;50.938;13.556;2023-06-14T01:43:44;4.70;;;2.40;;
16922;SDS011;8578;50.938;13.556;2023-06-14T01:46:13;2.23;;;1.83;;
16922;SDS011;8578;50.938;13.556;2023-06-14T01:48:42;4.53;;;2.00;;
16922;SDS011;8578;50.938;13.556;2023-06-14T01:51:10;2.77;;;2.20;;
16922;SDS011;8578;50.938;13.556;2023-06-14T01:53:38;3.43;;;2.10;;
16922;SDS011;8578;50.938;13.556;2023-06-14T01:56:09;3.37;;;2.07;;
16922;SDS011;8578;50.938;13.556;2023-06-14T01:58:38;3.97;;;2.10;;
16922;SDS011;8578;50.938;13.556;2023-06-14T02:01:06;2.83;;;2.30;;
16922;SDS011;8578;50.938;13.556;2023-06-14T02:03:34;3.73;;;2.07;;
16922;SDS011;8578;50.938;13.556;2023-06-14T02:06:04;4.20;;;2.30;;
16922;SDS011;8578;50.938;13.556;2023-06-14T02:08:32;4.20;;;2.10;;
16922;SDS011;8578;50.938;13.556;2023-06-14T02:11:00;3.50;;;2.50;;
16922;SDS011;8578;50.938;13.556;2023-06-14T02:13:27;3.10;;;2.10;;
16922;SDS011;8578;50.938;13.556;2023-06-14T02:15:56;7.13;;;2.20;;
16922;SDS011;8578;50.938;13.556;2023-06-14T02:18:24;3.60;;;2.03;;
16922;SDS011;8578;50.938;13.556;2023-06-14T02:20:51;2.70;;;2.13;;
16922;SDS011;8578;50.938;13.556;2023-06-14T02:23:19;2.97;;;2.20;;
16922;SDS011;8578;50.938;13.556;2023-06-14T02:25:47;4.33;;;2.30;;
16922;SDS011;8578;50.938;13.556;2023-06-14T02:28:14;4.20;;;2.43;;
16922;SDS011;8578;50.938;13.556;2023-06-14T02:30:42;3.47;;;2.20;;
16922;SDS011;8578;50.938;13.556;2023-06-14T02:33:11;3.57;;;2.20;;
16922;SDS011;8578;50.938;13.556;2023-06-14T02:35:39;5.43;;;2.10;;
16922;SDS011;8578;50.938;13.556;2023-06-14T02:38:07;3.50;;;2.40;;
16922;SDS011;8578;50.938;13.556;2023-06-14T02:40:35;4.77;;;2.17;;
16922;SDS011;8578;50.938;13.556;2023-06-14T02:43:02;3.27;;;2.20;;
16922;SDS011;8578;50.938;13.556;2023-06-14T02:45:31;3.27;;;2.30;;
16922;SDS011;8578;50.938;13.556;2023-06-14T02:47:58;3.50;;;2.27;;
16922;SDS011;8578;50.938;13.556;2023-06-14T02:50:27;4.03;;;1.97;;
16922;SDS011;8578;50.938;13.556;2023-06-14T02:52:56;6.07;;;2.07;;
16922;SDS011;8578;50.938;13.556;2023-06-14T02:55:24;3.77;;;2.20;;
16922;SDS011;8578;50.938;13.556;2023-06-14T02:57:52;3.83;;;2.03;;
16922;SDS011;8578;50.938;13.556;2023-06-14T03:00:20;3.27;;;2.03;;
16922;SDS011;8578;50.938;13.556;2023-06-14T03:02:47;2.90;;;2.10;;
16922;SDS011;8578;50.938;13.556;2023-06-14T03:05:18;3.70;;;2.80;;
16922;SDS011;8578;50.938;13.556;2023-06-14T03:07:49;3.07;;;2.20;;
16922;SDS011;8578;50.938;13.556;2023-06-14T03:10:17;3.83;;;2.50;;
16922;SDS011;8578;50.938;13.556;2023-06-14T03:12:45;3.53;;;2.60;;
16922;SDS011;8578;50.938;13.556;2023-06-14T03:15:14;4.20;;;2.10;;
16922;SDS011;8578;50.938;13.556;2023-06-14T03:17:46;3.77;;;2.50;;
16922;SDS011;8578;50.938;13.556;2023-06-14T03:20:15;4.10;;;2.20;;
16922;SDS011;8578;50.938;13.556;2023-06-14T03:22:46;2.80;;;2.10;;
16922;SDS011;8578;50.938;13.556;2023-06-14T03:25:16;3.07;;;2.07;;
16922;SDS011;8578;50.938;13.556;2023-06-14T03:27:47;2.97;;;1.90;;
16922;SDS011;8578;50.938;13.556;2023-06-14T03:30:14;2.70;;;2.13;;
16922;SDS011;8578;50.938;13.556;2023-06-14T03:32:45;3.40;;;2.60;;
16922;SDS011;8578;50.938;13.556;2023-06-14T03:35:13;2.90;;;2.03;;
16922;SDS011;8578;50.938;13.556;2023-06-14T03:37:46;3.07;;;2.70;;
16922;SDS011;8578;50.938;13.556;2023-06-14T03:40:16;2.97;;;2.00;;
16922;SDS011;8578;50.938;13.556;2023-06-14T03:42:47;2.90;;;2.10;;
16922;SDS011;8578;50.938;13.556;2023-06-14T03:45:14;3.27;;;2.47;;
16922;SDS011;8578;50.938;13.556;2023-06-14T03:47:42;4.70;;;2.40;;
16922;SDS011;8578;50.938;13.556;2023-06-14T03:50:11;3.67;;;2.27;;
16922;SDS011;8578;50.938;13.556;2023-06-14T03:52:39;2.93;;;2.20;;
16922;SDS011;8578;50.938;13.556;2023-06-14T03:55:09;2.80;;;2.13;;
16922;SDS011;8578;50.938;13.556;2023-06-14T03:57:43;3.00;;;2.37;;
16922;SDS011;8578;50.938;13.556;2023-06-14T04:00:15;3.03;;;2.20;;
16922;SDS011;8578;50.938;13.556;2023-06-14T04:02:43;6.40;;;2.63;;
16922;SDS011;8578;50.938;13.556;2023-06-14T04:05:11;3.30;;;2.60;;
16922;SDS011;8578;50.938;13.556;2023-06-14T04:07:44;4.10;;;2.70;;
16922;SDS011;8578;50.938;13.556;2023-06-14T04:10:12;4.83;;;2.70;;
16922;SDS011;8578;50.938;13.556;2023-06-14T04:12:40;3.40;;;2.50;;
16922;SDS011;8578;50.938;13.556;2023-06-14T04:15:11;3.57;;;2.63;;
16922;SDS011;8578;50.938;13.556;2023-06-14T04:17:48;6.03;;;3.27;;
16922;SDS011;8578;50.938;13.556;2023-06-14T04:20:16;4.77;;;2.90;;
16922;SDS011;8578;50.938;13.556;2023-06-14T04:22:43;3.80;;;3.13;;
16922;SDS011;8578;50.938;13.556;2023-06-14T04:25:11;9.90;;;3.20;;
16922;SDS011;8578;50.938;13.556;2023-06-14T04:27:41;5.60;;;2.90;;
16922;SDS011;8578;50.938;13.556;2023-06-14T04:30:11;3.70;;;2.83;;
16922;SDS011;8578;50.938;13.556;2023-06-14T04:32:46;4.43;;;3.30;;
16922;SDS011;8578;50.938;13.556;2023-06-14T04:35:15;4.33;;;3.07;;
16922;SDS011;8578;50.938;13.556;2023-06-14T04:37:45;5.90;;;3.10;;
16922;SDS011;8578;50.938;13.556;2023-06-14T04:40:12;6.27;;;3.10;;
16922;SDS011;8578;50.938;13.556;2023-06-14T04:42:40;4.50;;;3.03;;
16922;SDS011;8578;50.938;13.556;2023-06-14T04:45:15;4.50;;;3.27;;
16922;SDS011;8578;50.938;13.556;2023-06-14T04:47:44;4.03;;;2.90;;
16922;SDS011;8578;50.938;13.556;2023-06-14T04:50:12;4.40;;;3.00;;
16922;SDS011;8578;50.938;13.556;2023-06-14T04:52:41;4.93;;;3.30;;
16922;SDS011;8578;50.938;13.556;2023-06-14T04:55:09;6.37;;;3.30;;
16922;SDS011;8578;50.938;13.556;2023-06-14T04:57:37;6.53;;;3.30;;
16922;SDS011;8578;50.938;13.556;2023-06-14T05:00:06;5.57;;;3.30;;
16922;SDS011;8578;50.938;13.556;2023-06-14T05:02:40;3.73;;;2.70;;
16922;SDS011;8578;50.938;13.556;2023-06-14T05:05:08;5.03;;;3.20;;
16922;SDS011;8578;50.938;13.556;2023-06-14T05:07:35;3.43;;;3.00;;
16922;SDS011;8578;50.938;13.556;2023-06-14T05:10:08;8.67;;;3.43;;
16922;SDS011;8578;50.938;13.556;2023-06-14T05:12:36;6.67;;;3.03;;
16922;SDS011;8578;50.938;13.556;2023-06-14T05:15:07;4.60;;;3.07;;
16922;SDS011;8578;50.938;13.556;2023-06-14T05:17:35;4.47;;;3.50;;
16922;SDS011;8578;50.938;13.556;2023-06-14T05:20:06;7.40;;;3.50;;
16922;SDS011;8578;50.938;13.556;2023-06-14T05:22:34;3.37;;;3.07;;
16922;SDS011;8578;50.938;13.556;2023-06-14T05:25:01;6.67;;;3.50;;
16922;SDS011;8578;50.938;13.556;2023-06-14T05:27:29;4.80;;;3.40;;
16922;SDS011;8578;50.938;13.556;2023-06-14T05:29:57;7.10;;;3.57;;
16922;SDS011;8578;50.938;13.556;2023-06-14T05:32:25;5.20;;;3.80;;
16922;SDS011;8578;50.938;13.556;2023-06-14T05:34:52;5.80;;;3.63;;
16922;SDS011;8578;50.938;13.556;2023-06-14T05:37:21;4.47;;;3.30;;
16922;SDS011;8578;50.938;13.556;2023-06-14T05:39:49;5.90;;;3.70;;
16922;SDS011;8578;50.938;13.556;2023-06-14T05:42:16;5.33;;;3.50;;
16922;SDS011;8578;50.938;13.556;2023-06-14T05:44:44;4.17;;;3.23;;
16922;SDS011;8578;50.938;13.556;2023-06-14T05:47:11;3.90;;;3.07;;
16922;SDS011;8578;50.938;13.556;2023-06-14T05:49:39;9.87;;;3.40;;
16922;SDS011;8578;50.938;13.556;2023-06-14T05:52:07;4.20;;;3.00;;
16922;SDS011;8578;50.938;13.556;2023-06-14T05:54:36;4.00;;;3.07;;
16922;SDS011;8578;50.938;13.556;2023-06-14T05:57:04;6.80;;;3.37;;
16922;SDS011;8578;50.938;13.556;2023-06-14T05:59:32;5.27;;;3.83;;
16922;SDS011;8578;50.938;13.556;2023-06-14T06:01:59;5.70;;;3.57;;
16922;SDS011;8578;50.938;13.556;2023-06-14T06:04:27;5.77;;;3.27;;
16922;SDS011;8578;50.938;13.556;2023-06-14T06:06:55;5.63;;;3.67;;
16922;SDS011;8578;50.938;13.556;2023-06-14T06:09:22;4.97;;;3.63;;
16922;SDS011;8578;50.938;13.556;2023-06-14T06:11:51;4.97;;;3.27;;
16922;SDS011;8578;50.938;13.556;2023-06-14T06:14:19;4.83;;;3.50;;
16922;SDS011;8578;50.938;13.556;2023-06-14T06:16:47;5.30;;;3.00;;
16922;SDS011;8578;50.938;13.556;2023-06-14T06:19:15;5.93;;;3.37;;
16922;SDS011;8578;50.938;13.556;2023-06-14T06:21:42;4.10;;;3.53;;
16922;SDS011;8578;50.938;13.556;2023-06-14T06:24:10;5.07;;;3.77;;
16922;SDS011;8578;50.938;13.556;2023-06-14T06:26:37;5.40;;;3.73;;
16922;SDS011;8578;50.938;13.556;2023-06-14T06:29:07;4.00;;;3.50;;
16922;SDS011;8578;50.938;13.556;2023-06-14T06:31:34;5.60;;;3.97;;
16922;SDS011;8578;50.938;13.556;2023-06-14T06:34:02;5.10;;;4.00;;
16922;SDS011;8578;50.938;13.556;2023-06-14T06:36:30;5.07;;;3.90;;
16922;SDS011;8578;50.938;13.556;2023-06-14T06:38:57;5.03;;;3.80;;
16922;SDS011;8578;50.938;13.556;2023-06-14T06:41:25;5.50;;;3.90;;
16922;SDS011;8578;50.938;13.556;2023-06-14T06:43:53;7.93;;;3.50;;
16922;SDS011;8578;50.938;13.556;2023-06-14T06:46:28;4.33;;;3.50;;
16922;SDS011;8578;50.938;13.556;2023-06-14T06:48:56;5.20;;;3.53;;
16922;SDS011;8578;50.938;13.556;2023-06-14T06:51:23;4.43;;;3.40;;
16922;SDS011;8578;50.938;13.556;2023-06-14T06:53:52;6.53;;;3.80;;
16922;SDS011;8578;50.938;13.556;2023-06-14T06:56:19;4.13;;;3.27;;
16922;SDS011;8578;50.938;13.556;2023-06-14T06:58:49;4.47;;;3.37;;
16922;SDS011;8578;50.938;13.556;2023-06-14T07:01:16;3.77;;;3.10;;
16922;SDS011;8578;50.938;13.556;2023-06-14T07:03:47;4.60;;;3.53;;
16922;SDS011;8578;50.938;13.556;2023-06-14T07:06:15;8.57;;;3.97;;
16922;SDS011;8578;50.938;13.556;2023-06-14T07:08:44;4.50;;;3.57;;
16922;SDS011;8578;50.938;13.556;2023-06-14T07:11:14;4.03;;;3.27;;
16922;SDS011;8578;50.938;13.556;2023-06-14T07:13:42;7.63;;;3.93;;
16922;SDS011;8578;50.938;13.556;2023-06-14T07:16:09;5.27;;;3.60;;
16922;SDS011;8578;50.938;13.556;2023-06-14T07:18:37;5.33;;;3.20;;
16922;SDS011;8578;50.938;13.556;2023-06-14T07:21:06;5.93;;;3.40;;
16922;SDS011;8578;50.938;13.556;2023-06-14T07:23:33;7.73;;;3.63;;
16922;SDS011;8578;50.938;13.556;2023-06-14T07:26:01;4.10;;;3.10;;
16922;SDS011;8578;50.938;13.556;2023-06-14T07:28:29;5.50;;;3.33;;
16922;SDS011;8578;50.938;13.556;2023-06-14T07:30:57;4.13;;;2.83;;
16922;SDS011;8578;50.938;13.556;2023-06-14T07:33:24;3.53;;;2.83;;
16922;SDS011;8578;50.938;13.556;2023-06-14T07:35:52;5.83;;;2.87;;
16922;SDS011;8578;50.938;13.556;2023-06-14T07:38:21;6.63;;;3.10;;
16922;SDS011;8578;50.938;13.556;2023-06-14T07:40:49;4.60;;;2.90;;
16922;SDS011;8578;50.938;13.556;2023-06-14T07:43:16;7.83;;;3.03;;
16922;SDS011;8578;50.938;13.556;2023-06-14T07:45:45;5.47;;;3.40;;
16922;SDS011;8578;50.938;13.556;2023-06-14T07:48:31;4.17;;;3.13;;
16922;SDS011;8578;50.938;13.556;2023-06-14T07:50:59;7.43;;;3.20;;
16922;SDS011;8578;50.938;13.556;2023-06-14T07:53:29;3.83;;;3.10;;
16922;SDS011;8578;50.938;13.556;2023-06-14T07:55:57;3.80;;;2.80;;
16922;SDS011;8578;50.938;13.556;2023-06-14T07:58:24;2.90;;;2.50;;
16922;SDS011;8578;50.938;13.556;2023-06-14T08:00:52;4.73;;;3.20;;
16922;SDS011;8578;50.938;13.556;2023-06-14T08:03:19;4.10;;;3.03;;
16922;SDS011;8578;50.938;13.556;2023-06-14T08:05:49;7.17;;;3.00;;
16922;SDS011;8578;50.938;13.556;2023-06-14T08:08:16;8.77;;;3.17;;
16922;SDS011;8578;50.938;13.556;2023-06-14T08:10:45;4.23;;;3.03;;
16922;SDS011;8578;50.938;13.556;2023-06-14T08:13:12;11.77;;;3.33;;
16922;SDS011;8578;50.938;13.556;2023-06-14T08:15:40;3.33;;;2.63;;
16922;SDS011;8578;50.938;13.556;2023-06-14T08:18:08;8.07;;;3.10;;
16922;SDS011;8578;50.938;13.556;2023-06-14T08:20:35;7.40;;;3.00;;
16922;SDS011;8578;50.938;13.556;2023-06-14T08:23:03;4.37;;;2.53;;
16922;SDS011;8578;50.938;13.556;2023-06-14T08:25:31;3.87;;;3.00;;
16922;SDS011;8578;50.938;13.556;2023-06-14T08:28:00;5.27;;;3.37;;
16922;SDS011;8578;50.938;13.556;2023-06-14T08:30:27;4.40;;;3.00;;
16922;SDS011;8578;50.938;13.556;2023-06-14T08:32:55;4.90;;;2.90;;
16922;SDS011;8578;50.938;13.556;2023-06-14T08:35:41;6.67;;;3.00;;
16922;SDS011;8578;50.938;13.556;2023-06-14T08:38:12;5.23;;;3.00;;
16922;SDS011;8578;50.938;13.556;2023-06-14T08:40:42;4.60;;;2.90;;
16922;SDS011;8578;50.938;13.556;2023-06-14T08:43:11;3.50;;;3.10;;
16922;SDS011;8578;50.938;13.556;2023-06-14T08:45:39;12.00;;;4.43;;
16922;SDS011;8578;50.938;13.556;2023-06-14T08:48:06;14.87;;;4.40;;
16922;SDS011;8578;50.938;13.556;2023-06-14T08:50:36;6.37;;;2.87;;
16922;SDS011;8578;50.938;13.556;2023-06-14T08:53:04;5.20;;;2.90;;
16922;SDS011;8578;50.938;13.556;2023-06-14T08:55:36;4.37;;;3.07;;
16922;SDS011;8578;50.938;13.556;2023-06-14T08:58:09;5.20;;;3.10;;
16922;SDS011;8578;50.938;13.556;2023-06-14T09:00:42;3.53;;;2.23;;
16922;SDS011;8578;50.938;13.556;2023-06-14T09:03:11;5.27;;;3.00;;
16922;SDS011;8578;50.938;13.556;2023-06-14T09:05:41;8.13;;;2.53;;
16922;SDS011;8578;50.938;13.556;2023-06-14T09:08:09;13.77;;;3.83;;
16922;SDS011;8578;50.938;13.556;2023-06-14T09:10:37;4.77;;;2.47;;
16922;SDS011;8578;50.938;13.556;2023-06-14T09:13:04;6.80;;;2.60;;
16922;SDS011;8578;50.938;13.556;2023-06-14T09:15:33;3.47;;;2.60;;
16922;SDS011;8578;50.938;13.556;2023-06-14T09:18:03;3.20;;;2.23;;
16922;SDS011;8578;50.938;13.556;2023-06-14T09:20:32;4.40;;;2.20;;
16922;SDS011;8578;50.938;13.556;2023-06-14T09:23:00;3.33;;;2.03;;
16922;SDS011;8578;50.938;13.556;2023-06-14T09:25:27;5.57;;;2.30;;
16922;SDS011;8578;50.938;13.556;2023-06-14T09:28:06;3.87;;;2.17;;
16922;SDS011;8578;50.938;13.556;2023-06-14T09:30:35;2.30;;;1.90;;
16922;SDS011;8578;50.938;13.556;2023-06-14T09:33:04;2.53;;;1.80;;
16922;SDS011;8578;50.938;13.556;2023-06-14T09:35:32;2.30;;;1.97;;
16922;SDS011;8578;50.938;13.556;2023-06-14T09:38:00;1.97;;;1.63;;
16922;SDS011;8578;50.938;13.556;2023-06-14T09:40:27;2.07;;;1.60;;
16922;SDS011;8578;50.938;13.556;2023-06-14T09:42:55;4.00;;;1.80;;
16922;SDS011;8578;50.938;13.556;2023-06-14T09:45:24;5.00;;;2.10;;
16922;SDS011;8578;50.938;13.556;2023-06-14T09:47:56;2.50;;;1.90;;
16922;SDS011;8578;50.938;13.556;2023-06-14T09:50:29;2.63;;;1.80;;
16922;SDS011;8578;50.938;13.556;2023-06-14T09:52:56;3.87;;;2.00;;
16922;SDS011;8578;50.938;13.556;2023-06-14T09:55:27;4.17;;;1.90;;
16922;SDS011;8578;50.938;13.556;2023-06-14T09:57:56;4.23;;;2.13;;
16922;SDS011;8578;50.938;13.556;2023-06-14T10:00:25;4.03;;;1.83;;
16922;SDS011;8578;50.938;13.556;2023-06-14T10:02:54;2.67;;;2.03;;
16922;SDS011;8578;50.938;13.556;2023-06-14T10:05:22;2.40;;;1.80;;
16922;SDS011;8578;50.938;13.556;2023-06-14T10:07:53;2.77;;;1.87;;
16922;SDS011;8578;50.938;13.556;2023-06-14T10:10:22;2.67;;;2.00;;
16922;SDS011;8578;50.938;13.556;2023-06-14T10:12:49;2.57;;;2.10;;
16922;SDS011;8578;50.938;13.556;2023-06-14T10:15:19;2.40;;;2.00;;
16922;SDS011;8578;50.938;13.556;2023-06-14T10:17:50;3.43;;;1.93;;
16922;SDS011;8578;50.938;13.556;2023-06-14T10:20:25;2.57;;;2.17;;
16922;SDS011;8578;50.938;13.556;2023-06-14T10:22:56;4.77;;;2.23;;
16922;SDS011;8578;50.938;13.556;2023-06-14T10:25:25;3.17;;;2.00;;
16922;SDS011;8578;50.938;13.556;2023-06-14T10:27:55;3.60;;;2.20;;
16922;SDS011;8578;50.938;13.556;2023-06-14T10:30:29;3.13;;;2.20;;
16922;SDS011;8578;50.938;13.556;2023-06-14T10:33:03;2.50;;;2.00;;
16922;SDS011;8578;50.938;13.556;2023-06-14T10:35:31;2.70;;;2.27;;
16922;SDS011;8578;50.938;13.556;2023-06-14T10:38:07;4.80;;;2.50;;
16922;SDS011;8578;50.938;13.556;2023-06-14T10:40:36;3.57;;;2.03;;
16922;SDS011;8578;50.938;13.556;2023-06-14T10:43:20;3.67;;;2.50;;
16922;SDS011;8578;50.938;13.556;2023-06-14T10:48:40;3.73;;;2.70;;
16922;SDS011;8578;50.938;13.556;2023-06-14T10:51:13;3.50;;;2.30;;
16922;SDS011;8578;50.938;13.556;2023-06-14T10:53:43;4.73;;;2.40;;
16922;SDS011;8578;50.938;13.556;2023-06-14T10:56:13;3.97;;;1.90;;
16922;SDS011;8578;50.938;13.556;2023-06-14T10:58:50;5.63;;;2.40;;
16922;SDS011;8578;50.938;13.556;2023-06-14T11:01:18;3.77;;;2.03;;
16922;SDS011;8578;50.938;13.556;2023-06-14T11:03:50;2.40;;;2.03;;
16922;SDS011;8578;50.938;13.556;2023-06-14T11:06:21;3.23;;;2.07;;
16922;SDS011;8578;50.938;13.556;2023-06-14T11:09:05;3.27;;;1.80;;
16922;SDS011;8578;50.938;13.556;2023-06-14T11:11:39;2.73;;;2.00;;
16922;SDS011;8578;50.938;13.556;2023-06-14T11:14:09;3.03;;;1.93;;
16922;SDS011;8578;50.938;13.556;2023-06-14T11:16:37;2.27;;;1.93;;
16922;SDS011;8578;50.938;13.556;2023-06-14T11:19:05;3.43;;;2.10;;
16922;SDS011;8578;50.938;13.556;2023-06-14T11:21:32;2.53;;;1.97;;
16922;SDS011;8578;50.938;13.556;2023-06-14T11:24:00;2.40;;;2.00;;
16922;SDS011;8578;50.938;13.556;2023-06-14T11:26:30;3.30;;;2.03;;
16922;SDS011;8578;50.938;13.556;2023-06-14T11:29:01;2.37;;;1.90;;
16922;SDS011;8578;50.938;13.556;2023-06-14T11:31:28;2.63;;;2.10;;
16922;SDS011;8578;50.938;13.556;2023-06-14T11:33:57;3.30;;;2.10;;
16922;SDS011;8578;50.938;13.556;2023-06-14T11:36:26;2.60;;;2.40;;
16922;SDS011;8578;50.938;13.556;2023-06-14T11:38:57;4.73;;;2.13;;
16922;SDS011;8578;50.938;13.556;2023-06-14T11:41:33;3.57;;;2.20;;
16922;SDS011;8578;50.938;13.556;2023-06-14T11:44:01;2.60;;;2.07;;
16922;SDS011;8578;50.938;13.556;2023-06-14T11:46:29;5.53;;;2.23;;
16922;SDS011;8578;50.938;13.556;2023-06-14T11:48:56;3.93;;;2.10;;
16922;SDS011;8578;50.938;13.556;2023-06-14T11:51:24;3.87;;;2.20;;
16922;SDS011;8578;50.938;13.556;2023-06-14T11:53:51;3.00;;;2.23;;
16922;SDS011;8578;50.938;13.556;2023-06-14T11:56:19;4.13;;;2.23;;
16922;SDS011;8578;50.938;13.556;2023-06-14T11:58:48;6.17;;;2.23;;
16922;SDS011;8578;50.938;13.556;2023-06-14T12:01:16;4.73;;;2.03;;
16922;SDS011;8578;50.938;13.556;2023-06-14T12:03:47;5.83;;;2.30;;
16922;SDS011;8578;50.938;13.556;2023-06-14T12:06:15;3.23;;;2.40;;
16922;SDS011;8578;50.938;13.556;2023-06-14T12:08:44;2.77;;;2.13;;
16922;SDS011;8578;50.938;13.556;2023-06-14T12:11:15;5.33;;;2.40;;
16922;SDS011;8578;50.938;13.556;2023-06-14T12:13:43;4.70;;;2.53;;
16922;SDS011;8578;50.938;13.556;2023-06-14T12:16:13;4.23;;;2.70;;
16922;SDS011;8578;50.938;13.556;2023-06-14T12:18:40;3.67;;;2.40;;
16922;SDS011;8578;50.938;13.556;2023-06-14T12:21:09;3.13;;;2.43;;
16922;SDS011;8578;50.938;13.556;2023-06-14T12:23:43;3.37;;;2.67;;
16922;SDS011;8578;50.938;13.556;2023-06-14T12:26:12;3.03;;;2.73;;
16922;SDS011;8578;50.938;13.556;2023-06-14T12:28:40;6.27;;;3.03;;
16922;SDS011;8578;50.938;13.556;2023-06-14T12:31:08;5.63;;;2.87;;
16922;SDS011;8578;50.938;13.556;2023-06-14T12:33:37;3.53;;;2.93;;
16922;SDS011;8578;50.938;13.556;2023-06-14T12:36:06;3.33;;;2.83;;
16922;SDS011;8578;50.938;13.556;2023-06-14T12:38:34;4.33;;;2.77;;
16922;SDS011;8578;50.938;13.556;2023-06-14T12:41:01;2.87;;;2.63;;
16922;SDS011;8578;50.938;13.556;2023-06-14T12:43:30;3.47;;;2.60;;
16922;SDS011;8578;50.938;13.556;2023-06-14T12:45:58;4.50;;;2.60;;
16922;SDS011;8578;50.938;13.556;2023-06-14T12:48:26;3.83;;;2.87;;
16922;SDS011;8578;50.938;13.556;2023-06-14T12:50:55;3.37;;;3.07;;
16922;SDS011;8578;50.938;13.556;2023-06-14T12:53:23;5.10;;;2.97;;
16922;SDS011;8578;50.938;13.556;2023-06-14T12:55:50;3.40;;;2.73;;
16922;SDS011;8578;50.938;13.556;2023-06-14T12:58:18;3.83;;;2.90;;
16922;SDS011;8578;50.938;13.556;2023-06-14T13:00:46;3.20;;;2.70;;
16922;SDS011;8578;50.938;13.556;2023-06-14T13:03:15;3.30;;;2.73;;
16922;SDS011;8578;50.938;13.556;2023-06-14T13:05:43;3.17;;;2.73;;
16922;SDS011;8578;50.938;13.556;2023-06-14T13:08:12;5.67;;;2.63;;
16922;SDS011;8578;50.938;13.556;2023-06-14T13:10:40;4.87;;;2.77;;
16922;SDS011;8578;50.938;13.556;2023-06-14T13:13:07;5.70;;;3.07;;
16922;SDS011;8578;50.938;13.556;2023-06-14T13:15:35;3.67;;;2.80;;
16922;SDS011;8578;50.938;13.556;2023-06-14T13:18:02;3.43;;;2.63;;
16922;SDS011;8578;50.938;13.556;2023-06-14T13:20:30;3.63;;;2.80;;
16922;SDS011;8578;50.938;13.556;2023-06-14T13:22:58;4.23;;;2.97;;
16922;SDS011;8578;50.938;13.556;2023-06-14T13:25:27;3.80;;;2.73;;
16922;SDS011;8578;50.938;13.556;2023-06-14T13:27:55;5.67;;;3.17;;
16922;SDS011;8578;50.938;13.556;2023-06-14T13:30:22;4.00;;;2.80;;
16922;SDS011;8578;50.938;13.556;2023-06-14T13:32:50;3.77;;;2.90;;
16922;SDS011;8578;50.938;13.556;2023-06-14T13:35:18;6.33;;;2.67;;
16922;SDS011;8578;50.938;13.556;2023-06-14T13:37:45;4.43;;;2.80;;
16922;SDS011;8578;50.938;13.556;2023-06-14T13:40:14;5.13;;;2.47;;
16922;SDS011;8578;50.938;13.556;2023-06-14T13:42:44;5.03;;;2.70;;
16922;SDS011;8578;50.938;13.556;2023-06-14T13:45:12;5.87;;;2.57;;
16922;SDS011;8578;50.938;13.556;2023-06-14T13:47:40;2.90;;;2.60;;
16922;SDS011;8578;50.938;13.556;2023-06-14T13:50:07;2.97;;;2.50;;
16922;SDS011;8578;50.938;13.556;2023-06-14T13:52:35;4.03;;;2.50;;
16922;SDS011;8578;50.938;13.556;2023-06-14T13:55:03;3.63;;;2.63;;
16922;SDS011;8578;50.938;13.556;2023-06-14T13:57:31;3.17;;;2.40;;
16922;SDS011;8578;50.938;13.556;2023-06-14T14:00:01;6.53;;;2.43;;
16922;SDS011;8578;50.938;13.556;2023-06-14T14:02:37;7.37;;;2.50;;
16922;SDS011;8578;50.938;13.556;2023-06-14T14:05:06;2.90;;;2.60;;
16922;SDS011;8578;50.938;13.556;2023-06-14T14:07:34;5.37;;;2.50;;
16922;SDS011;8578;50.938;13.556;2023-06-14T14:10:02;3.13;;;2.70;;
16922;SDS011;8578;50.938;13.556;2023-06-14T14:12:30;2.90;;;2.60;;
16922;SDS011;8578;50.938;13.556;2023-06-14T14:14:57;3.83;;;2.80;;
16922;SDS011;8578;50.938;13.556;2023-06-14T14:17:26;11.37;;;3.47;;
16922;SDS011;8578;50.938;13.556;2023-06-14T14:19:54;3.00;;;2.70;;
16922;SDS011;8578;50.938;13.556;2023-06-14T14:22:21;2.90;;;2.50;;
16922;SDS011;8578;50.938;13.556;2023-06-14T14:24:49;3.80;;;2.80;;
16922;SDS011;8578;50.938;13.556;2023-06-14T14:27:16;10.83;;;2.80;;
16922;SDS011;8578;50.938;13.556;2023-06-14T14:29:44;4.20;;;2.60;;
16922;SDS011;8578;50.938;13.556;2023-06-14T14:32:11;3.60;;;2.27;;
16922;SDS011;8578;50.938;13.556;2023-06-14T14:34:41;2.50;;;2.10;;
16922;SDS011;8578;50.938;13.556;2023-06-14T14:37:09;6.87;;;2.43;;
16922;SDS011;8578;50.938;13.556;2023-06-14T14:39:36;2.30;;;2.10;;
16922;SDS011;8578;50.938;13.556;2023-06-14T14:42:04;5.10;;;2.10;;
16922;SDS011;8578;50.938;13.556;2023-06-14T14:44:34;7.53;;;2.50;;
16922;SDS011;8578;50.938;13.556;2023-06-14T14:47:01;12.00;;;2.67;;
16922;SDS011;8578;50.938;13.556;2023-06-14T14:49:30;3.87;;;2.20;;
16922;SDS011;8578;50.938;13.556;2023-06-14T14:51:58;5.03;;;2.70;;
16922;SDS011;8578;50.938;13.556;2023-06-14T14:54:44;5.03;;;2.60;;
16922;SDS011;8578;50.938;13.556;2023-06-14T14:57:11;5.47;;;2.30;;
16922;SDS011;8578;50.938;13.556;2023-06-14T14:59:39;2.50;;;2.30;;
16922;SDS011;8578;50.938;13.556;2023-06-14T15:02:06;5.87;;;2.40;;